Time;durP1;ratioP1;P1;durP2;ratioP2;P2;SDS_P1;SDS_P2;PMS_P1;PMS_P2;Temp;Humidity;BMP_temperature;BMP_pressure;BME280_temperature;BME280_humidity;BME280_pressure;Samples;Min_cycle;Max_cycle;Signal;HPM_P1;HPM_P2
2022/04/30 00:02:15;;;;;;;;;32.25;29.50;;;;;14.77;44.88;102151.50;5013225;28;45396;-68
2022/04/30 00:04:46;;;;;;;;;31.50;27.25;;;;;14.75;45.55;102151.44;5014139;28;45670;-69
2022/04/30 00:07:17;;;;;;;;;35.50;30.00;;;;;14.73;45.26;102150.44;5007300;28;45546;-75
2022/04/30 00:09:44;;;;;;;;;38.25;28.50;;;;;14.66;46.11;102148.44;5014114;28;45471;-68
2022/04/30 00:12:10;;;;;;;;;32.50;29.75;;;;;14.60;46.28;102153.63;5014014;28;45450;-71
2022/04/30 00:14:37;;;;;;;;;36.00;29.75;;;;;14.57;46.48;102152.63;5009139;28;46276;-71
2022/04/30 00:17:03;;;;;;;;;33.75;30.75;;;;;14.53;46.08;102157.84;5013725;28;45361;-68
2022/04/30 00:19:29;;;;;;;;;38.25;32.50;;;;;14.51;46.50;102154.19;5013771;28;45407;-70
2022/04/30 00:21:57;;;;;;;;;37.00;30.25;;;;;14.49;46.88;102154.16;5014158;28;45490;-66
2022/04/30 00:24:26;;;;;;;;;33.00;29.25;;;;;14.48;46.61;102159.47;5013685;28;45478;-68
2022/04/30 00:26:52;;;;;;;;;38.25;31.50;;;;;14.49;46.86;102151.47;5013789;28;45511;-67
2022/04/30 00:29:18;;;;;;;;;40.50;31.75;;;;;14.26;47.63;102136.34;5013588;28;45470;-70
2022/04/30 00:31:43;;;;;;;;;31.00;29.50;;;;;14.22;47.77;102129.03;5013586;28;45447;-68
2022/04/30 00:34:09;;;;;;;;;35.75;32.50;;;;;14.33;47.79;102150.03;5013530;28;45279;-73
2022/04/30 00:36:35;;;;;;;;;40.00;32.25;;;;;14.40;47.76;102161.91;5013715;28;45494;-67
2022/04/30 00:39:00;;;;;;;;;38.00;30.25;;;;;14.35;48.04;102172.53;5013379;28;45323;-67
2022/04/30 00:41:26;;;;;;;;;43.25;32.50;;;;;14.22;48.09;102156.81;5014002;28;45382;-69
2022/04/30 00:43:53;;;;;;;;;34.50;31.50;;;;;14.27;48.18;102170.41;5013642;28;45555;-67
2022/04/30 00:46:23;;;;;;;;;37.25;30.75;;;;;14.13;48.31;102148.47;5013591;28;45403;-70
2022/04/30 00:48:50;;;;;;;;;29.75;23.00;;;;;14.21;48.68;102168.44;5013961;28;45343;-72
2022/04/30 00:51:18;;;;;;;;;33.00;29.00;;;;;14.21;48.76;102171.13;5014009;28;45358;-75
2022/04/30 00:53:46;;;;;;;;;37.75;32.75;;;;;14.23;48.73;102169.41;5014327;28;46242;-69
2022/04/30 00:56:13;;;;;;;;;33.25;27.75;;;;;14.04;48.69;102138.31;5014726;28;45442;-66
2022/04/30 00:58:45;;;;;;;;;34.00;30.75;;;;;14.01;49.15;102167.75;5014563;28;45415;-67
2022/04/30 01:01:11;;;;;;;;;32.75;30.25;;;;;13.81;48.57;102118.72;5013792;28;45532;-66
2022/04/30 01:03:36;;;;;;;;;29.25;27.75;;;;;13.99;48.89;102153.34;5013352;28;45606;-68
2022/04/30 01:06:04;;;;;;;;;35.50;30.25;;;;;14.01;49.64;102159.69;5013233;28;45453;-66
2022/04/30 01:08:30;;;;;;;;;42.00;32.50;;;;;14.00;49.52;102165.91;5013517;28;45530;-67
2022/04/30 01:11:04;;;;;;;;;30.00;25.50;;;;;13.91;49.51;102158.47;5013462;28;45435;-67
2022/04/30 01:13:34;;;;;;;;;35.25;32.00;;;;;13.63;49.86;102094.78;5015306;28;45999;-69
2022/04/30 01:16:05;;;;;;;;;40.25;30.75;;;;;13.85;50.20;102151.97;5016445;28;45557;-67
2022/04/30 01:18:34;;;;;;;;;34.75;30.50;;;;;13.70;50.10;102115.63;5016500;28;45626;-70
2022/04/30 01:21:04;;;;;;;;;42.75;31.75;;;;;13.86;50.04;102152.00;5015585;28;45506;-67
2022/04/30 01:23:33;;;;;;;;;37.25;30.00;;;;;13.82;50.75;102144.69;5016782;28;46491;-70
2022/04/30 01:26:01;;;;;;;;;31.75;29.75;;;;;13.58;50.39;102100.00;5016380;28;45443;-70
2022/04/30 01:28:28;;;;;;;;;32.00;31.00;;;;;13.74;50.25;102133.69;5016558;28;45346;-67
2022/04/30 01:30:53;;;;;;;;;36.75;31.00;;;;;13.59;50.45;102100.91;5016605;28;45415;-71
2022/04/30 01:37:22;;;;;;;;;35.75;31.00;;;;;13.74;50.69;102132.75;5016276;28;45364;-68
2022/04/30 01:38:58;;;;;;;;;41.75;31.50;;;;;13.75;51.27;102137.28;5015752;28;45423;-68
2022/04/30 01:41:23;;;;;;;;;36.50;32.00;;;;;13.38;49.81;102075.13;5016757;28;45501;-77
2022/04/30 01:43:49;;;;;;;;;34.25;30.75;;;;;13.80;50.28;102138.34;5015942;28;45990;-67
2022/04/30 01:46:14;;;;;;;;;42.00;32.50;;;;;13.55;50.81;102091.81;5016413;28;45696;-68
2022/04/30 01:48:40;;;;;;;;;34.25;31.00;;;;;13.73;50.69;102126.47;5016538;28;45627;-66
2022/04/30 01:51:05;;;;;;;;;39.75;31.25;;;;;13.74;51.19;102128.31;5016372;28;45483;-68
2022/04/30 01:53:30;;;;;;;;;41.50;34.25;;;;;13.76;50.36;102126.59;5016244;28;46033;-69
2022/04/30 01:55:56;;;;;;;;;44.00;30.50;;;;;13.75;50.16;102124.75;5016311;28;45316;-68
2022/04/30 01:58:21;;;;;;;;;34.75;30.00;;;;;13.64;51.07;102119.03;5015987;28;45664;-67
2022/04/30 02:00:47;;;;;;;;;33.75;30.00;;;;;13.71;51.19;102122.84;5016410;28;45522;-66
2022/04/30 02:03:13;;;;;;;;;34.00;30.50;;;;;13.72;51.38;102119.28;5015560;28;46423;-69
2022/04/30 02:05:41;;;;;;;;;36.25;29.75;;;;;13.75;50.63;102115.78;5015670;28;45423;-71
2022/04/30 02:08:15;;;;;;;;;33.50;29.25;;;;;13.73;51.47;102120.22;5015749;28;45403;-66
2022/04/30 02:10:42;;;;;;;;;33.25;29.75;;;;;13.63;50.49;102105.53;5015998;28;45400;-66
2022/04/30 02:13:09;;;;;;;;;35.75;32.00;;;;;13.74;51.03;102132.75;5015658;28;46468;-66
2022/04/30 02:15:36;;;;;;;;;32.50;30.25;;;;;13.70;51.21;102114.72;5015670;28;45563;-68
2022/04/30 02:18:03;;;;;;;;;28.50;27.25;;;;;13.40;51.20;102077.88;5015459;28;45510;-66
2022/04/30 02:20:30;;;;;;;;;44.00;34.00;;;;;13.58;50.85;102112.53;5015797;28;45332;-66
2022/04/30 02:23:04;;;;;;;;;35.00;30.75;;;;;13.36;51.69;102092.00;5015435;28;47375;-65
2022/04/30 02:25:30;;;;;;;;;32.00;28.50;;;;;13.36;52.29;102106.34;5013553;28;45326;-67
2022/04/30 02:27:58;;;;;;;;;36.50;30.00;;;;;13.13;52.48;102064.28;5015648;28;45561;-71
2022/04/30 02:30:26;;;;;;;;;45.25;30.25;;;;;13.32;52.70;102111.53;5016016;28;45344;-69
2022/04/30 02:32:54;;;;;;;;;18.50;11.75;;;;;13.30;52.72;102102.47;5015409;28;46198;-68
2022/04/30 02:35:24;;;;;;;;;34.25;28.50;;;;;13.16;51.80;102085.88;5015717;28;45621;-66
2022/04/30 02:37:52;;;;;;;;;26.25;26.25;;;;;13.24;52.86;102105.88;5015379;28;45553;-66
2022/04/30 02:40:19;;;;;;;;;38.50;30.25;;;;;13.18;52.09;102094.91;5014196;28;45384;-66
2022/04/30 02:42:45;;;;;;;;;32.50;28.75;;;;;12.97;52.59;102055.69;5015169;28;45503;-66
2022/04/30 02:45:13;;;;;;;;;28.00;28.00;;;;;13.25;52.86;102111.28;5015399;28;45308;-66
2022/04/30 02:47:40;;;;;;;;;34.25;29.00;;;;;13.08;52.32;102089.19;5015428;28;45539;-67
2022/04/30 02:50:08;;;;;;;;;32.50;30.25;;;;;13.19;52.38;102107.47;5015567;28;45304;-66
2022/04/30 02:52:34;;;;;;;;;32.75;31.00;;;;;12.87;52.74;102050.84;5015369;28;47007;-66
2022/04/30 02:54:59;;;;;;;;;37.75;30.00;;;;;13.13;52.71;102108.13;5015248;28;45380;-73
2022/04/30 02:57:25;;;;;;;;;36.00;32.75;;;;;13.00;52.51;102079.94;5015376;28;45575;-66
2022/04/30 02:59:58;;;;;;;;;37.50;32.75;;;;;12.90;52.96;102067.97;5015427;28;45404;-67
2022/04/30 03:02:24;;;;;;;;;31.00;25.25;;;;;13.13;52.88;102099.19;4994898;28;46086;-66
2022/04/30 03:04:52;;;;;;;;;35.75;32.25;;;;;13.09;53.36;102098.16;4999204;28;45551;-66
2022/04/30 03:07:22;;;;;;;;;34.25;31.00;;;;;13.13;53.33;102108.13;5011742;28;45450;-72
2022/04/30 03:09:48;;;;;;;;;38.50;30.00;;;;;13.11;53.57;102096.44;5014902;28;45538;-66
2022/04/30 03:12:15;;;;;;;;;37.50;29.25;;;;;13.07;52.75;102092.72;5014689;28;45356;-71
2022/04/30 03:14:42;;;;;;;;;30.25;27.00;;;;;13.04;53.25;102092.59;5014829;28;45423;-66
2022/04/30 03:22:37;;;;;;;;;37.50;31.75;;;;;12.93;53.30;102067.13;5014590;28;45866;-66
2022/04/30 03:25:03;;;;;;;;;33.50;29.00;;;;;12.89;53.39;102082.22;4993940;28;45428;-67
2022/04/30 03:27:28;;;;;;;;;36.00;31.00;;;;;13.02;52.73;102090.75;5014665;28;45420;-66
2022/04/30 03:29:53;;;;;;;;;36.25;31.25;;;;;12.96;54.25;102091.41;5014688;28;45332;-66
2022/04/30 03:32:24;;;;;;;;;34.75;29.00;;;;;12.73;53.22;102056.56;5014515;28;46175;-69
2022/04/30 03:34:50;;;;;;;;;33.75;28.50;;;;;12.93;53.00;102082.34;5014971;28;45730;-66
2022/04/30 03:37:15;;;;;;;;;36.25;28.50;;;;;12.99;53.32;102085.25;5007261;28;45507;-67
2022/04/30 03:39:40;;;;;;;;;40.50;31.25;;;;;13.01;53.73;102094.28;5014695;28;45488;-71
2022/04/30 03:42:06;;;;;;;;;36.75;31.00;;;;;12.99;53.68;102091.53;4992809;28;47056;-66
2022/04/30 03:44:32;;;;;;;;;35.25;31.00;;;;;13.05;53.20;102090.84;5013409;28;45444;-68
2022/04/30 03:46:57;;;;;;;;;40.75;32.00;;;;;12.99;53.91;102094.22;5014548;28;45547;-66
2022/04/30 03:49:22;;;;;;;;;45.25;30.75;;;;;12.83;53.51;102070.34;5014631;28;45343;-66
2022/04/30 03:51:48;;;;;;;;;40.75;31.75;;;;;12.90;53.88;102092.09;4996485;28;46069;-71
2022/04/30 03:54:13;;;;;;;;;36.00;30.50;;;;;12.77;53.86;102096.91;5014228;28;45534;-66
2022/04/30 03:56:39;;;;;;;;;39.00;30.00;;;;;12.73;53.88;102079.78;5014533;28;45323;-66
2022/04/30 03:59:04;;;;;;;;;38.75;30.75;;;;;12.77;53.96;102096.91;5014416;28;45531;-68
2022/04/30 04:01:30;;;;;;;;;32.75;28.75;;;;;12.71;54.17;102085.09;5013973;28;46148;-66
2022/04/30 04:03:55;;;;;;;;;30.25;28.00;;;;;12.68;54.55;102092.09;5014134;28;45443;-66
2022/04/30 04:06:22;;;;;;;;;39.25;34.00;;;;;12.43;54.00;102029.47;5014291;28;45514;-66
2022/04/30 04:08:50;;;;;;;;;44.25;31.25;;;;;12.53;54.10;102061.16;5014627;28;45262;-74
2022/04/30 04:11:16;;;;;;;;;31.25;28.25;;;;;12.81;54.41;102093.50;5013839;28;46484;-69
2022/04/30 04:19:10;;;;;;;;;38.00;29.75;;;;;12.65;54.22;102092.88;5014146;28;45264;-70
2022/04/30 04:21:35;;;;;;;;;39.25;29.00;;;;;12.53;54.66;102085.28;5013482;28;45443;-67
2022/04/30 04:26:45;;;;;;;;;31.00;29.75;;;;;12.42;55.08;102072.31;5014099;28;45455;-66
2022/04/30 04:29:10;;;;;;;;;36.75;30.50;;;;;12.62;54.84;102091.84;5014091;28;45497;-65
2022/04/30 04:31:36;;;;;;;;;36.50;31.00;;;;;12.66;55.24;102102.78;4992817;28;46009;-66
2022/04/30 04:34:02;;;;;;;;;42.50;32.25;;;;;12.58;54.93;102072.06;5013732;28;45542;-67
2022/04/30 04:36:28;;;;;;;;;33.50;30.50;;;;;12.77;54.37;102096.91;5014148;28;45626;-66
2022/04/30 04:38:53;;;;;;;;;36.25;31.00;;;;;12.79;53.89;102095.22;5013916;28;45518;-65
2022/04/30 04:41:19;;;;;;;;;45.00;33.25;;;;;12.73;54.87;102080.69;5013598;28;45402;-66
2022/04/30 04:43:44;;;;;;;;;33.50;29.25;;;;;12.64;55.00;102063.38;5013826;28;45406;-73
2022/04/30 04:46:10;;;;;;;;;42.50;33.25;;;;;12.45;54.96;102034.91;5014464;28;45429;-66
2022/04/30 04:48:36;;;;;;;;;38.00;33.00;;;;;12.81;54.39;102105.13;5017077;28;45501;-68
2022/04/30 04:51:02;;;;;;;;;43.75;33.75;;;;;12.64;54.97;102082.13;5017222;28;46310;-66
2022/04/30 04:53:28;;;;;;;;;36.75;31.25;;;;;12.79;54.48;102108.63;5017540;28;45372;-66
2022/04/30 04:55:53;;;;;;;;;40.50;32.00;;;;;12.82;54.91;102117.72;5017324;28;45487;-71
2022/04/30 04:58:19;;;;;;;;;37.00;32.50;;;;;12.77;55.30;102116.63;5017292;28;45459;-70
2022/04/30 05:00:44;;;;;;;;;40.25;32.25;;;;;12.81;54.41;102117.66;5017038;28;45284;-69
2022/04/30 05:03:09;;;;;;;;;33.00;30.75;;;;;12.75;55.01;102107.56;5016878;28;45503;-67
2022/04/30 05:05:35;;;;;;;;;44.00;35.00;;;;;12.89;55.20;102118.84;5016997;28;45877;-68
2022/04/30 05:08:02;;;;;;;;;39.00;33.25;;;;;12.76;55.23;102098.69;5017010;28;45472;-66
2022/04/30 05:10:27;;;;;;;;;41.00;33.00;;;;;12.92;54.97;102121.66;5016546;28;46404;-66
2022/04/30 05:12:52;;;;;;;;;36.75;33.25;;;;;12.95;55.10;102126.22;5016494;28;45552;-66
2022/04/30 05:15:18;;;;;;;;;40.25;32.50;;;;;12.91;55.65;102119.81;5017181;28;45686;-65
2022/04/30 05:17:43;;;;;;;;;38.50;32.75;;;;;12.95;54.71;102124.47;5016808;28;45405;-66
2022/04/30 05:20:09;;;;;;;;;35.50;31.50;;;;;13.00;54.80;102133.59;5016640;28;45947;-65
2022/04/30 05:22:34;;;;;;;;;45.00;36.75;;;;;12.96;54.43;102128.97;5016602;28;45364;-65
2022/04/30 05:25:00;;;;;;;;;40.25;33.50;;;;;12.84;55.31;102112.41;5016847;28;45703;-66
2022/04/30 05:27:25;;;;;;;;;43.00;35.00;;;;;12.98;54.42;102131.72;5016831;28;45383;-65
2022/04/30 05:29:50;;;;;;;;;46.25;35.00;;;;;12.92;55.33;102132.41;5016328;28;45857;-65
2022/04/30 05:32:16;;;;;;;;;37.50;31.00;;;;;12.48;55.10;102076.13;5016630;28;45411;-65
2022/04/30 05:34:41;;;;;;;;;46.25;34.00;;;;;12.93;54.72;102142.25;5016699;28;46214;-65
2022/04/30 05:37:07;;;;;;;;;38.25;31.00;;;;;12.58;54.82;102068.47;5016908;28;45309;-65
2022/04/30 05:39:32;;;;;;;;;38.25;33.00;;;;;13.01;54.67;102150.59;5015909;28;45352;-66
2022/04/30 05:41:57;;;;;;;;;45.00;35.50;;;;;13.02;53.93;102150.66;5016036;28;45396;-65
2022/04/30 05:44:23;;;;;;;;;44.25;34.00;;;;;13.04;55.12;102153.41;5016310;28;45300;-66
2022/04/30 05:46:48;;;;;;;;;35.25;30.75;;;;;13.09;54.73;102158.09;5016643;28;45355;-66
2022/04/30 05:49:14;;;;;;;;;40.75;33.00;;;;;12.94;54.34;102125.31;5015930;28;45539;-65
2022/04/30 05:51:39;;;;;;;;;35.00;29.00;;;;;12.93;54.59;102120.78;5016340;28;45273;-65
2022/04/30 05:54:05;;;;;;;;;38.25;32.50;;;;;13.04;53.74;102137.31;5016644;28;45433;-67
2022/04/30 05:56:30;;;;;;;;;34.00;30.75;;;;;13.11;54.65;102155.47;5016336;28;45507;-66
2022/04/30 05:58:56;;;;;;;;;48.25;39.00;;;;;12.54;53.83;102056.72;5014935;28;45916;-67
2022/04/30 06:01:21;;;;;;;;;46.00;37.00;;;;;13.15;54.24;102156.50;5015766;28;45374;-68
2022/04/30 06:03:46;;;;;;;;;52.00;34.25;;;;;13.16;54.30;102164.59;5015960;28;45583;-70
2022/04/30 06:06:12;;;;;;;;;39.25;34.50;;;;;13.15;53.12;102160.13;5016286;28;45515;-66
2022/04/30 06:08:37;;;;;;;;;40.00;33.50;;;;;13.11;54.37;102167.97;5016160;28;46205;-68
2022/04/30 06:11:03;;;;;;;;;42.00;32.25;;;;;12.96;54.25;102155.78;5015881;28;45570;-69
2022/04/30 06:13:28;;;;;;;;;38.00;29.00;;;;;12.85;54.54;102139.28;5016064;28;45634;-66
2022/04/30 06:15:54;;;;;;;;;27.50;27.25;;;;;13.08;53.96;102164.34;5016179;28;45496;-66
2022/04/30 06:18:20;;;;;;;;;40.25;32.00;;;;;12.83;53.76;102121.28;5015104;28;45447;-67
2022/04/30 06:20:46;;;;;;;;;38.00;34.00;;;;;13.14;53.62;102174.38;5015404;28;45471;-63
2022/04/30 06:23:15;;;;;;;;;38.25;32.50;;;;;13.14;53.14;102168.09;5015702;28;45390;-65
2022/04/30 06:25:41;;;;;;;;;40.75;33.25;;;;;13.11;53.39;102176.94;5015857;28;45420;-66
2022/04/30 06:28:06;;;;;;;;;35.25;31.00;;;;;13.03;52.88;102165.94;5015120;28;46132;-66
2022/04/30 06:30:32;;;;;;;;;36.25;31.25;;;;;13.02;53.99;102164.09;5015472;28;45807;-66
2022/04/30 06:32:57;;;;;;;;;48.25;33.50;;;;;13.01;53.43;102158.66;5015810;28;45453;-66
2022/04/30 06:35:23;;;;;;;;;36.75;32.00;;;;;13.11;53.22;102181.41;5015628;28;45475;-65
2022/04/30 06:37:48;;;;;;;;;39.75;31.50;;;;;13.08;53.34;102185.81;5015068;28;45530;-66
2022/04/30 06:40:13;;;;;;;;;35.50;31.00;;;;;12.97;53.86;102167.41;5015128;28;45447;-66
2022/04/30 06:42:44;;;;;;;;;35.75;31.25;;;;;12.62;53.22;102100.84;5015508;28;45498;-65
2022/04/30 06:45:11;;;;;;;;;38.00;32.75;;;;;13.14;52.70;102177.06;5015783;28;45372;-65
2022/04/30 06:47:37;;;;;;;;;67.50;52.00;;;;;13.23;53.34;102181.84;5015026;28;47066;-65
2022/04/30 06:50:03;;;;;;;;;41.00;33.50;;;;;13.32;53.06;102184.94;5015671;28;45481;-66
2022/04/30 06:52:30;;;;;;;;;38.00;33.00;;;;;13.38;52.25;102178.88;5013796;28;45393;-66
2022/04/30 06:57:39;;;;;;;;;36.25;31.25;;;;;13.50;51.65;102165.94;5015375;28;45646;-69
2022/04/30 07:01:24;;;;;;;;;38.25;33.25;;;;;13.70;50.74;102188.16;5015077;28;45447;-65
2022/04/30 07:02:51;;;;;;;;;37.50;32.25;;;;;13.76;51.48;102184.75;5014943;28;45490;-65
2022/04/30 07:05:16;;;;;;;;;39.00;32.25;;;;;13.63;50.60;102183.41;5015052;28;45566;-65
2022/04/30 07:07:41;;;;;;;;;37.25;29.50;;;;;13.71;50.54;102179.25;5014247;28;46256;-65
2022/04/30 07:10:07;;;;;;;;;36.25;32.50;;;;;13.81;50.94;102201.97;5014072;28;47617;-66
2022/04/30 07:12:32;;;;;;;;;33.75;31.50;;;;;13.86;50.09;102196.75;5014686;28;45428;-65
2022/04/30 07:14:58;;;;;;;;;31.75;26.25;;;;;13.83;49.64;102176.97;5014649;28;45373;-67
2022/04/30 07:17:23;;;;;;;;;39.00;31.25;;;;;14.07;49.91;102207.34;5014259;28;48122;-65
2022/04/30 07:19:48;;;;;;;;;32.00;30.00;;;;;14.11;49.70;102207.53;5014680;28;45647;-71
2022/04/30 07:22:14;;;;;;;;;32.00;30.00;;;;;13.98;49.89;102183.78;5014278;28;45462;-67
2022/04/30 07:24:39;;;;;;;;;33.75;30.25;;;;;14.06;49.80;102187.66;5014446;28;45507;-66
2022/04/30 07:27:05;;;;;;;;;38.00;31.00;;;;;14.10;49.50;102176.13;5014541;28;46500;-65
2022/04/30 07:29:31;;;;;;;;;32.00;29.75;;;;;14.31;49.67;102212.69;5014663;28;45659;-65
2022/04/30 07:31:57;;;;;;;;;43.75;34.50;;;;;14.34;48.74;102199.34;5014401;28;45427;-66
2022/04/30 07:34:23;;;;;;;;;42.75;35.75;;;;;14.35;48.54;102204.78;5014715;28;45479;-65
2022/04/30 07:36:48;;;;;;;;;33.25;27.75;;;;;14.10;48.29;102178.81;5014383;28;46128;-66
2022/04/30 07:39:14;;;;;;;;;33.50;31.75;;;;;14.32;48.86;102209.13;5013991;28;45406;-65
2022/04/30 07:41:39;;;;;;;;;33.00;30.75;;;;;14.33;48.53;102219.94;5014244;28;45475;-65
2022/04/30 07:44:05;;;;;;;;;38.75;28.75;;;;;14.14;48.13;102187.94;5014311;28;45614;-68
2022/04/30 07:46:30;;;;;;;;;28.75;26.25;;;;;14.30;48.39;102213.53;5014233;28;45479;-65
2022/04/30 07:48:56;;;;;;;;;40.25;29.00;;;;;14.29;48.47;102212.63;5014345;28;45394;-71
2022/04/30 07:54:07;;;;;;;;;34.25;29.75;;;;;14.33;48.42;102209.19;5014645;28;45588;-69
2022/04/30 07:56:33;;;;;;;;;39.00;32.00;;;;;14.32;48.09;102217.19;5013680;28;45516;-65
2022/04/30 07:58:58;;;;;;;;;37.00;31.50;;;;;13.87;48.84;102155.59;5013640;28;45474;-66
2022/04/30 08:01:24;;;;;;;;;35.00;29.25;;;;;14.28;48.89;102209.88;5013995;28;45486;-65
2022/04/30 08:03:49;;;;;;;;;39.00;34.00;;;;;14.24;49.04;102186.44;5013868;28;45413;-71
2022/04/30 08:06:14;;;;;;;;;32.25;29.00;;;;;14.47;48.49;102206.03;5014007;28;46017;-65
2022/04/30 08:08:40;;;;;;;;;28.25;24.75;;;;;14.56;48.38;102217.13;5014020;28;45484;-67
2022/04/30 08:11:05;;;;;;;;;35.75;31.00;;;;;14.30;48.56;102166.06;5013890;28;45385;-68
2022/04/30 08:13:31;;;;;;;;;25.00;25.00;;;;;14.72;47.91;102208.72;5014097;28;45406;-66
2022/04/30 08:15:56;;;;;;;;;32.25;28.50;;;;;14.75;47.47;102207.94;5013374;28;46202;-66
2022/04/30 08:18:22;;;;;;;;;36.75;28.00;;;;;14.79;46.83;102199.09;5013121;28;45486;-66
2022/04/30 08:20:47;;;;;;;;;51.50;41.75;;;;;14.97;47.18;102212.22;5012095;28;45409;-66
2022/04/30 08:23:13;;;;;;;;;31.25;28.00;;;;;15.02;46.39;102196.22;4995106;28;45443;-67
2022/04/30 08:25:39;;;;;;;;;29.00;26.75;;;;;15.21;46.36;102212.09;5013259;28;46271;-66
2022/04/30 08:28:05;;;;;;;;;38.50;31.25;;;;;14.69;45.82;102111.78;5013617;28;45622;-68
2022/04/30 08:30:32;;;;;;;;;32.25;29.50;;;;;14.96;45.60;102150.25;5013492;28;45410;-66
2022/04/30 08:32:57;;;;;;;;;29.00;25.25;;;;;15.38;45.73;102200.91;5013485;28;45451;-69
2022/04/30 08:35:23;;;;;;;;;31.25;26.00;;;;;15.48;45.33;102208.38;5013074;28;45725;-71
2022/04/30 08:37:48;;;;;;;;;33.00;28.33;;;;;15.50;45.04;102220.13;5013287;28;45365;-66
2022/04/30 08:40:14;;;;;;;;;32.50;27.50;;;;;15.48;45.17;102216.47;5013611;28;45269;-65
2022/04/30 08:42:39;;;;;;;;;30.75;29.25;;;;;15.52;44.65;102201.31;5013295;28;45610;-66
2022/04/30 08:45:08;;;;;;;;;31.25;29.75;;;;;15.59;44.78;102209.63;4994642;28;48146;-69
2022/04/30 08:47:41;;;;;;;;;32.00;29.75;;;;;15.70;44.97;102211.72;5013947;28;45437;-66
2022/04/30 08:50:09;;;;;;;;;29.50;26.00;;;;;15.84;44.50;102211.25;5014489;28;45629;-67
2022/04/30 08:52:35;;;;;;;;;29.75;29.50;;;;;15.78;44.49;102185.94;5014700;28;45427;-71
2022/04/30 08:55:00;;;;;;;;;31.00;26.25;;;;;15.95;43.75;102202.56;5013536;28;45475;-68
2022/04/30 08:57:25;;;;;;;;;30.25;26.00;;;;;15.94;43.70;102192.66;4995556;28;49440;-69
2022/04/30 08:59:51;;;;;;;;;29.50;26.50;;;;;16.01;43.73;102200.03;5013294;28;45572;-66
2022/04/30 09:02:20;;;;;;;;;25.25;22.25;;;;;15.86;43.42;102184.34;5013457;28;46327;-67
2022/04/30 09:04:48;;;;;;;;;36.25;27.00;;;;;16.01;43.78;102192.84;5012593;28;46304;-65
2022/04/30 09:07:21;;;;;;;;;31.75;27.50;;;;;16.14;43.42;102186.00;5013046;28;45569;-67
2022/04/30 09:09:58;;;;;;;;;35.75;29.75;;;;;16.29;43.19;102179.22;5013022;28;45300;-68
2022/04/30 09:12:25;;;;;;;;;34.25;31.00;;;;;16.40;43.20;102183.09;5013160;28;45355;-66
2022/04/30 09:14:51;;;;;;;;;39.50;33.00;;;;;16.46;42.17;102179.63;5012636;28;46781;-68
2022/04/30 09:17:17;;;;;;;;;32.75;29.50;;;;;16.52;42.14;102179.78;5012247;28;45378;-66
2022/04/30 09:19:59;;;;;;;;;40.75;34.50;;;;;16.57;41.12;102179.00;5011040;28;45353;-70
2022/04/30 09:22:33;;;;;;;;;42.75;34.25;;;;;16.61;40.84;102176.41;5012917;28;45360;-66
2022/04/30 09:25:02;;;;;;;;;41.50;35.50;;;;;16.64;40.22;102179.16;5012587;28;45474;-67
2022/04/30 09:27:27;;;;;;;;;31.25;27.25;;;;;16.67;40.32;102172.06;5012437;28;45489;-66
2022/04/30 09:29:53;;;;;;;;;24.00;21.00;;;;;16.74;39.16;102175.81;5012575;28;45463;-67
2022/04/30 09:32:22;;;;;;;;;20.50;18.75;;;;;16.79;38.92;102174.13;5012913;28;45481;-68
2022/04/30 09:37:41;;;;;;;;;29.50;21.75;;;;;17.00;37.29;102167.47;5015511;28;45412;-66
2022/04/30 09:40:15;;;;;;;;;20.00;16.50;;;;;17.03;37.07;102168.44;5015912;28;45539;-69
2022/04/30 09:42:42;;;;;;;;;26.00;21.25;;;;;17.18;37.49;102169.66;5016468;28;45024;-70
2022/04/30 09:45:20;;;;;;;;;21.50;20.75;;;;;17.31;38.12;102163.66;5016047;28;46537;-66
2022/04/30 09:47:46;;;;;;;;;25.25;18.25;;;;;17.48;37.97;102163.97;5015682;28;45504;-71
2022/04/30 09:55:42;;;;;;;;;20.75;17.25;;;;;17.53;36.32;102166.78;5015602;28;45832;-68
2022/04/30 09:58:09;;;;;;;;;20.75;16.75;;;;;17.36;36.01;102134.94;5015460;28;45507;-69
2022/04/30 10:00:35;;;;;;;;;20.50;17.25;;;;;17.45;36.42;102124.28;5015525;28;45409;-66
2022/04/30 10:03:02;;;;;;;;;18.00;15.75;;;;;17.71;36.13;102158.16;4997600;28;45340;-67
2022/04/30 10:05:30;;;;;;;;;17.50;16.75;;;;;17.79;35.72;102153.78;5015363;28;46443;-67
2022/04/30 10:07:56;;;;;;;;;15.25;15.00;;;;;17.82;34.97;102154.75;5015317;28;45445;-69
2022/04/30 10:10:28;;;;;;;;;16.00;11.75;;;;;17.73;34.90;102142.84;5015401;28;45464;-67
2022/04/30 10:13:04;;;;;;;;;11.50;10.25;;;;;17.77;34.76;102148.34;5015661;28;45313;-66
2022/04/30 10:16:06;;;;;;;;;13.25;11.75;;;;;17.90;34.83;102154.94;5013859;28;47057;-65
2022/04/30 10:18:41;;;;;;;;;17.75;12.25;;;;;17.90;34.35;102162.13;4952949;28;45502;-70
2022/04/30 10:21:16;;;;;;;;;14.00;14.00;;;;;17.72;34.13;102123.03;4972643;28;45462;-66
2022/04/30 10:23:41;;;;;;;;;16.50;15.75;;;;;17.99;35.04;102146.09;4976104;28;45420;-68
2022/04/30 10:26:07;;;;;;;;;14.75;14.75;;;;;17.96;34.28;102143.31;4975883;28;45578;-66
2022/04/30 10:28:33;;;;;;;;;23.25;19.75;;;;;17.91;34.93;102126.09;4975354;28;45444;-66
2022/04/30 10:30:59;;;;;;;;;16.50;13.50;;;;;18.11;34.56;102145.38;4975540;28;45579;-68
2022/04/30 10:33:25;;;;;;;;;13.00;12.00;;;;;18.08;33.83;102135.41;4976270;28;45549;-68
2022/04/30 10:36:11;;;;;;;;;18.00;15.00;;;;;18.04;34.25;102150.69;4975465;28;46276;-71
2022/04/30 10:38:37;;;;;;;;;16.25;14.75;;;;;18.07;34.67;102147.13;4975672;28;45439;-66
2022/04/30 10:41:05;;;;;;;;;16.75;15.00;;;;;18.03;34.57;102143.47;4975018;28;45388;-65
2022/04/30 10:43:36;;;;;;;;;13.75;12.25;;;;;17.97;34.42;102129.84;4975789;28;45437;-68
2022/04/30 10:46:03;;;;;;;;;16.50;16.25;;;;;18.04;34.58;102141.66;4975410;28;46225;-68
2022/04/30 10:48:29;;;;;;;;;10.75;10.75;;;;;17.91;34.17;102123.41;4975772;28;45399;-68
2022/04/30 10:51:09;;;;;;;;;11.00;10.25;;;;;18.01;33.87;102131.69;4973969;28;45402;-68
2022/04/30 10:53:38;;;;;;;;;16.75;11.75;;;;;17.99;34.04;102128.06;4975330;28;45638;-66
2022/04/30 10:56:05;;;;;;;;;13.75;10.50;;;;;18.08;33.85;102130.00;4974714;28;46523;-66
2022/04/30 10:58:31;;;;;;;;;13.75;11.25;;;;;18.10;32.96;102125.56;4974364;28;45351;-70
2022/04/30 11:01:23;;;;;;;;;16.75;13.00;;;;;18.03;33.35;102112.78;4974728;28;45498;-70
2022/04/30 11:03:49;;;;;;;;;11.50;9.25;;;;;18.00;33.55;102091.09;4972191;28;45332;-67
2022/04/30 11:06:23;;;;;;;;;11.50;10.50;;;;;17.91;33.11;102074.72;4974143;28;47481;-69
2022/04/30 11:09:08;;;;;;;;;16.25;9.75;;;;;18.16;33.41;102113.91;4974474;28;45751;-67
2022/04/30 11:11:35;;;;;;;;;15.00;14.00;;;;;18.22;33.84;102117.63;4974223;28;45476;-66
2022/04/30 11:14:11;;;;;;;;;13.75;12.25;;;;;18.33;33.87;102108.78;4974260;28;45232;-68
2022/04/30 11:16:42;;;;;;;;;13.00;12.50;;;;;18.36;33.60;102103.41;4974014;28;46369;-65
2022/04/30 11:19:10;;;;;;;;;12.25;12.25;;;;;18.29;33.60;102072.66;5012250;28;45295;-69
2022/04/30 11:21:40;;;;;;;;;14.75;12.25;;;;;18.48;32.94;102094.56;5013785;28;45410;-66
2022/04/30 11:24:06;;;;;;;;;10.50;7.25;;;;;18.42;33.17;102093.59;5014022;28;45382;-66
2022/04/30 11:26:42;;;;;;;;;9.00;9.00;;;;;18.40;32.97;102098.09;5013642;28;46370;-68
2022/04/30 11:29:12;;;;;;;;;10.25;9.25;;;;;18.40;32.84;102095.38;5012312;28;45657;-70
2022/04/30 11:31:37;;;;;;;;;11.50;9.25;;;;;18.36;32.48;102082.72;5007001;28;45378;-68
2022/04/30 11:34:16;;;;;;;;;14.00;9.00;;;;;18.28;32.12;102075.31;4995635;28;45788;-68
2022/04/30 11:36:49;;;;;;;;;9.50;9.50;;;;;18.38;32.41;102086.34;5008117;28;46230;-67
2022/04/30 11:39:16;;;;;;;;;9.00;7.33;;;;;18.44;32.18;102079.19;5013574;28;45379;-67
2022/04/30 11:41:43;;;;;;;;;8.75;7.50;;;;;18.45;31.86;102070.22;5013556;28;45396;-67